sensor_id;sensor_type;location;lat;lon;timestamp;P1;durP1;ratioP1;P2;durP2;ratioP2
67640;SDS011;54434;50.096;20.082;2022-09-09T00:00:59;17.80;;;10.80;;
67640;SDS011;54434;50.096;20.082;2022-09-09T00:03:45;15.20;;;10.40;;
67640;SDS011;54434;50.096;20.082;2022-09-09T00:06:30;14.00;;;10.90;;
67640;SDS011;54434;50.096;20.082;2022-09-09T00:09:14;12.90;;;10.70;;
67640;SDS011;54434;50.096;20.082;2022-09-09T00:11:58;13.10;;;10.60;;
67640;SDS011;54434;50.096;20.082;2022-09-09T00:14:47;15.30;;;11.50;;
67640;SDS011;54434;50.096;20.082;2022-09-09T00:17:38;13.80;;;11.00;;
67640;SDS011;54434;50.096;20.082;2022-09-09T00:20:23;15.30;;;10.50;;
67640;SDS011;54434;50.096;20.082;2022-09-09T00:23:14;15.70;;;10.80;;
67640;SDS011;54434;50.096;20.082;2022-09-09T00:26:04;14.40;;;10.20;;
67640;SDS011;54434;50.096;20.082;2022-09-09T00:28:55;13.70;;;10.30;;
67640;SDS011;54434;50.096;20.082;2022-09-09T00:31:38;13.60;;;10.50;;
67640;SDS011;54434;50.096;20.082;2022-09-09T00:34:18;13.20;;;10.60;;
67640;SDS011;54434;50.096;20.082;2022-09-09T00:36:59;13.70;;;9.80;;
67640;SDS011;54434;50.096;20.082;2022-09-09T00:39:40;13.90;;;9.80;;
67640;SDS011;54434;50.096;20.082;2022-09-09T00:42:25;14.80;;;9.80;;
67640;SDS011;54434;50.096;20.082;2022-09-09T00:45:33;12.20;;;9.60;;
67640;SDS011;54434;50.096;20.082;2022-09-09T00:48:22;12.60;;;9.30;;
67640;SDS011;54434;50.096;20.082;2022-09-09T00:51:11;13.00;;;9.80;;
67640;SDS011;54434;50.096;20.082;2022-09-09T00:54:12;16.10;;;9.70;;
67640;SDS011;54434;50.096;20.082;2022-09-09T00:57:07;13.80;;;10.20;;
67640;SDS011;54434;50.096;20.082;2022-09-09T00:59:59;14.90;;;10.60;;
67640;SDS011;54434;50.096;20.082;2022-09-09T01:03:10;14.10;;;10.60;;
67640;SDS011;54434;50.096;20.082;2022-09-09T01:06:13;14.30;;;10.50;;
67640;SDS011;54434;50.096;20.082;2022-09-09T01:09:16;14.60;;;10.60;;
67640;SDS011;54434;50.096;20.082;2022-09-09T01:12:01;15.60;;;10.00;;
67640;SDS011;54434;50.096;20.082;2022-09-09T01:14:49;14.70;;;11.00;;
67640;SDS011;54434;50.096;20.082;2022-09-09T01:17:33;13.60;;;10.40;;
67640;SDS011;54434;50.096;20.082;2022-09-09T01:20:24;15.90;;;10.30;;
67640;SDS011;54434;50.096;20.082;2022-09-09T01:23:41;18.60;;;11.00;;
67640;SDS011;54434;50.096;20.082;2022-09-09T01:26:31;15.00;;;10.40;;
67640;SDS011;54434;50.096;20.082;2022-09-09T01:29:16;14.40;;;11.30;;
67640;SDS011;54434;50.096;20.082;2022-09-09T01:31:58;14.20;;;10.80;;
67640;SDS011;54434;50.096;20.082;2022-09-09T01:34:39;14.00;;;10.30;;
67640;SDS011;54434;50.096;20.082;2022-09-09T01:37:16;14.50;;;10.60;;
67640;SDS011;54434;50.096;20.082;2022-09-09T01:39:52;12.70;;;10.10;;
67640;SDS011;54434;50.096;20.082;2022-09-09T01:42:29;15.40;;;11.20;;
67640;SDS011;54434;50.096;20.082;2022-09-09T01:45:06;14.80;;;10.80;;
67640;SDS011;54434;50.096;20.082;2022-09-09T01:47:43;16.90;;;11.00;;
67640;SDS011;54434;50.096;20.082;2022-09-09T01:50:31;18.60;;;11.20;;
67640;SDS011;54434;50.096;20.082;2022-09-09T01:53:07;15.20;;;11.40;;
67640;SDS011;54434;50.096;20.082;2022-09-09T01:55:48;15.10;;;10.90;;
67640;SDS011;54434;50.096;20.082;2022-09-09T01:58:43;16.10;;;11.30;;
67640;SDS011;54434;50.096;20.082;2022-09-09T02:01:49;15.20;;;11.40;;
67640;SDS011;54434;50.096;20.082;2022-09-09T02:04:41;15.40;;;11.50;;
67640;SDS011;54434;50.096;20.082;2022-09-09T02:07:38;17.00;;;11.70;;
67640;SDS011;54434;50.096;20.082;2022-09-09T02:10:32;16.70;;;12.00;;
67640;SDS011;54434;50.096;20.082;2022-09-09T02:13:22;18.60;;;12.70;;
67640;SDS011;54434;50.096;20.082;2022-09-09T02:16:04;18.60;;;12.80;;
67640;SDS011;54434;50.096;20.082;2022-09-09T02:18:50;16.70;;;12.10;;
67640;SDS011;54434;50.096;20.082;2022-09-09T02:21:37;18.00;;;13.10;;
67640;SDS011;54434;50.096;20.082;2022-09-09T02:24:16;17.50;;;12.50;;
67640;SDS011;54434;50.096;20.082;2022-09-09T02:26:58;20.10;;;12.30;;
67640;SDS011;54434;50.096;20.082;2022-09-09T02:29:42;20.90;;;12.70;;
67640;SDS011;54434;50.096;20.082;2022-09-09T02:32:24;17.90;;;12.70;;
67640;SDS011;54434;50.096;20.082;2022-09-09T02:35:08;19.20;;;13.00;;
67640;SDS011;54434;50.096;20.082;2022-09-09T02:37:50;14.90;;;12.10;;
67640;SDS011;54434;50.096;20.082;2022-09-09T02:40:30;18.60;;;12.50;;
67640;SDS011;54434;50.096;20.082;2022-09-09T02:43:07;17.50;;;12.10;;
67640;SDS011;54434;50.096;20.082;2022-09-09T02:45:51;18.30;;;12.80;;
67640;SDS011;54434;50.096;20.082;2022-09-09T02:48:44;16.90;;;12.00;;
67640;SDS011;54434;50.096;20.082;2022-09-09T02:51:50;16.50;;;12.20;;
67640;SDS011;54434;50.096;20.082;2022-09-09T02:54:35;17.00;;;12.90;;
67640;SDS011;54434;50.096;20.082;2022-09-09T02:57:19;18.40;;;12.70;;
67640;SDS011;54434;50.096;20.082;2022-09-09T03:00:02;19.10;;;13.50;;
67640;SDS011;54434;50.096;20.082;2022-09-09T03:02:39;18.00;;;12.60;;
67640;SDS011;54434;50.096;20.082;2022-09-09T03:05:16;16.50;;;13.00;;
67640;SDS011;54434;50.096;20.082;2022-09-09T03:07:52;16.70;;;12.90;;
67640;SDS011;54434;50.096;20.082;2022-09-09T03:10:28;15.90;;;12.70;;
67640;SDS011;54434;50.096;20.082;2022-09-09T03:13:04;17.30;;;13.10;;
67640;SDS011;54434;50.096;20.082;2022-09-09T03:15:43;17.30;;;12.80;;
67640;SDS011;54434;50.096;20.082;2022-09-09T03:18:21;19.10;;;13.30;;
67640;SDS011;54434;50.096;20.082;2022-09-09T03:20:58;17.50;;;13.00;;
67640;SDS011;54434;50.096;20.082;2022-09-09T03:23:35;19.10;;;13.20;;
67640;SDS011;54434;50.096;20.082;2022-09-09T03:26:11;20.10;;;13.90;;
67640;SDS011;54434;50.096;20.082;2022-09-09T03:28:50;20.00;;;14.80;;
67640;SDS011;54434;50.096;20.082;2022-09-09T03:31:27;20.60;;;13.80;;
67640;SDS011;54434;50.096;20.082;2022-09-09T03:34:04;19.80;;;14.40;;
67640;SDS011;54434;50.096;20.082;2022-09-09T03:36:41;22.50;;;14.10;;
67640;SDS011;54434;50.096;20.082;2022-09-09T03:39:17;20.60;;;14.80;;
67640;SDS011;54434;50.096;20.082;2022-09-09T03:41:53;21.80;;;14.70;;
67640;SDS011;54434;50.096;20.082;2022-09-09T03:44:29;20.40;;;15.00;;
67640;SDS011;54434;50.096;20.082;2022-09-09T03:47:06;21.70;;;14.40;;
67640;SDS011;54434;50.096;20.082;2022-09-09T03:49:43;23.20;;;15.50;;
67640;SDS011;54434;50.096;20.082;2022-09-09T03:52:19;21.50;;;15.60;;
67640;SDS011;54434;50.096;20.082;2022-09-09T03:54:58;20.80;;;15.50;;
67640;SDS011;54434;50.096;20.082;2022-09-09T03:57:35;22.80;;;16.30;;
67640;SDS011;54434;50.096;20.082;2022-09-09T04:00:15;21.40;;;16.10;;
67640;SDS011;54434;50.096;20.082;2022-09-09T04:02:54;22.90;;;16.00;;
67640;SDS011;54434;50.096;20.082;2022-09-09T04:05:30;21.80;;;15.60;;
67640;SDS011;54434;50.096;20.082;2022-09-09T04:08:08;24.70;;;15.20;;
67640;SDS011;54434;50.096;20.082;2022-09-09T04:10:46;20.70;;;15.60;;
67640;SDS011;54434;50.096;20.082;2022-09-09T04:13:23;21.50;;;15.60;;
67640;SDS011;54434;50.096;20.082;2022-09-09T04:16:02;23.40;;;16.40;;
67640;SDS011;54434;50.096;20.082;2022-09-09T04:18:39;23.50;;;16.80;;
67640;SDS011;54434;50.096;20.082;2022-09-09T04:21:16;24.70;;;16.70;;
67640;SDS011;54434;50.096;20.082;2022-09-09T04:23:52;23.90;;;16.00;;
67640;SDS011;54434;50.096;20.082;2022-09-09T04:26:28;23.30;;;17.10;;
67640;SDS011;54434;50.096;20.082;2022-09-09T04:29:05;25.60;;;17.60;;
67640;SDS011;54434;50.096;20.082;2022-09-09T04:31:41;25.40;;;17.30;;
67640;SDS011;54434;50.096;20.082;2022-09-09T04:34:18;25.90;;;17.70;;
67640;SDS011;54434;50.096;20.082;2022-09-09T04:36:54;27.20;;;17.50;;
67640;SDS011;54434;50.096;20.082;2022-09-09T04:39:30;29.40;;;17.70;;
67640;SDS011;54434;50.096;20.082;2022-09-09T04:42:07;26.30;;;18.60;;
67640;SDS011;54434;50.096;20.082;2022-09-09T04:44:43;29.80;;;19.10;;
67640;SDS011;54434;50.096;20.082;2022-09-09T04:47:19;25.90;;;18.50;;
67640;SDS011;54434;50.096;20.082;2022-09-09T04:49:55;28.70;;;18.10;;
67640;SDS011;54434;50.096;20.082;2022-09-09T04:52:33;32.30;;;19.70;;
67640;SDS011;54434;50.096;20.082;2022-09-09T04:55:11;33.00;;;21.30;;
67640;SDS011;54434;50.096;20.082;2022-09-09T04:57:48;26.80;;;19.90;;
67640;SDS011;54434;50.096;20.082;2022-09-09T05:00:25;25.80;;;18.50;;
67640;SDS011;54434;50.096;20.082;2022-09-09T05:03:06;24.40;;;16.90;;
67640;SDS011;54434;50.096;20.082;2022-09-09T05:05:42;24.00;;;16.60;;
67640;SDS011;54434;50.096;20.082;2022-09-09T05:08:18;20.90;;;15.30;;
67640;SDS011;54434;50.096;20.082;2022-09-09T05:10:55;26.40;;;14.90;;
67640;SDS011;54434;50.096;20.082;2022-09-09T05:13:32;22.10;;;15.00;;
67640;SDS011;54434;50.096;20.082;2022-09-09T05:16:13;23.30;;;14.20;;
67640;SDS011;54434;50.096;20.082;2022-09-09T05:18:51;28.70;;;13.40;;
67640;SDS011;54434;50.096;20.082;2022-09-09T05:21:27;24.30;;;12.70;;
67640;SDS011;54434;50.096;20.082;2022-09-09T05:24:04;22.40;;;12.40;;
67640;SDS011;54434;50.096;20.082;2022-09-09T05:26:40;22.10;;;10.90;;
67640;SDS011;54434;50.096;20.082;2022-09-09T05:29:17;15.40;;;10.00;;
67640;SDS011;54434;50.096;20.082;2022-09-09T05:31:53;21.50;;;10.00;;
67640;SDS011;54434;50.096;20.082;2022-09-09T05:34:30;20.50;;;10.10;;
67640;SDS011;54434;50.096;20.082;2022-09-09T05:37:06;20.10;;;9.50;;
67640;SDS011;54434;50.096;20.082;2022-09-09T05:39:42;13.20;;;9.20;;
67640;SDS011;54434;50.096;20.082;2022-09-09T05:42:18;14.60;;;9.40;;
67640;SDS011;54434;50.096;20.082;2022-09-09T05:44:54;12.20;;;8.70;;
67640;SDS011;54434;50.096;20.082;2022-09-09T05:47:31;14.90;;;8.70;;
67640;SDS011;54434;50.096;20.082;2022-09-09T05:50:09;10.10;;;7.70;;
67640;SDS011;54434;50.096;20.082;2022-09-09T05:52:46;11.80;;;7.70;;
67640;SDS011;54434;50.096;20.082;2022-09-09T05:55:23;12.30;;;7.50;;
67640;SDS011;54434;50.096;20.082;2022-09-09T05:57:59;10.30;;;7.30;;
67640;SDS011;54434;50.096;20.082;2022-09-09T06:00:36;13.60;;;7.60;;
67640;SDS011;54434;50.096;20.082;2022-09-09T06:03:13;15.10;;;8.20;;
67640;SDS011;54434;50.096;20.082;2022-09-09T06:05:58;14.00;;;8.10;;
67640;SDS011;54434;50.096;20.082;2022-09-09T06:08:36;11.60;;;8.40;;
67640;SDS011;54434;50.096;20.082;2022-09-09T06:11:15;14.60;;;9.40;;
67640;SDS011;54434;50.096;20.082;2022-09-09T06:13:52;12.90;;;10.40;;
67640;SDS011;54434;50.096;20.082;2022-09-09T06:16:29;15.80;;;10.50;;
67640;SDS011;54434;50.096;20.082;2022-09-09T06:19:07;15.90;;;10.80;;
67640;SDS011;54434;50.096;20.082;2022-09-09T06:21:43;13.60;;;10.70;;
67640;SDS011;54434;50.096;20.082;2022-09-09T06:24:22;16.20;;;11.20;;
67640;SDS011;54434;50.096;20.082;2022-09-09T06:26:59;17.80;;;11.30;;
67640;SDS011;54434;50.096;20.082;2022-09-09T06:29:38;14.30;;;10.90;;
67640;SDS011;54434;50.096;20.082;2022-09-09T06:32:14;14.50;;;10.20;;
67640;SDS011;54434;50.096;20.082;2022-09-09T06:34:51;12.70;;;9.30;;
67640;SDS011;54434;50.096;20.082;2022-09-09T06:37:27;12.70;;;9.60;;
67640;SDS011;54434;50.096;20.082;2022-09-09T06:40:04;11.70;;;8.50;;
67640;SDS011;54434;50.096;20.082;2022-09-09T06:42:41;13.40;;;8.60;;
67640;SDS011;54434;50.096;20.082;2022-09-09T06:45:29;11.40;;;8.30;;
67640;SDS011;54434;50.096;20.082;2022-09-09T06:48:06;12.80;;;8.60;;
67640;SDS011;54434;50.096;20.082;2022-09-09T06:50:42;15.00;;;9.30;;
67640;SDS011;54434;50.096;20.082;2022-09-09T06:55:59;12.70;;;9.20;;
67640;SDS011;54434;50.096;20.082;2022-09-09T06:58:36;11.00;;;8.60;;
67640;SDS011;54434;50.096;20.082;2022-09-09T07:01:20;12.90;;;8.20;;
67640;SDS011;54434;50.096;20.082;2022-09-09T07:03:58;9.90;;;6.80;;
67640;SDS011;54434;50.096;20.082;2022-09-09T07:06:40;8.80;;;6.10;;
67640;SDS011;54434;50.096;20.082;2022-09-09T07:09:20;10.20;;;6.20;;
67640;SDS011;54434;50.096;20.082;2022-09-09T07:11:57;8.10;;;6.40;;
67640;SDS011;54434;50.096;20.082;2022-09-09T07:14:35;9.10;;;5.50;;
67640;SDS011;54434;50.096;20.082;2022-09-09T07:17:13;10.40;;;6.60;;
67640;SDS011;54434;50.096;20.082;2022-09-09T07:19:49;8.80;;;6.50;;
67640;SDS011;54434;50.096;20.082;2022-09-09T07:22:26;9.00;;;6.90;;
67640;SDS011;54434;50.096;20.082;2022-09-09T07:25:03;11.20;;;6.30;;
67640;SDS011;54434;50.096;20.082;2022-09-09T07:27:41;10.80;;;6.50;;
67640;SDS011;54434;50.096;20.082;2022-09-09T07:30:19;13.40;;;6.40;;
67640;SDS011;54434;50.096;20.082;2022-09-09T07:35:37;8.70;;;6.20;;
67640;SDS011;54434;50.096;20.082;2022-09-09T07:38:14;9.40;;;5.80;;
67640;SDS011;54434;50.096;20.082;2022-09-09T07:40:50;9.00;;;5.70;;
67640;SDS011;54434;50.096;20.082;2022-09-09T07:43:30;11.90;;;5.80;;
67640;SDS011;54434;50.096;20.082;2022-09-09T07:46:13;10.90;;;6.50;;
67640;SDS011;54434;50.096;20.082;2022-09-09T07:48:57;10.00;;;6.70;;
67640;SDS011;54434;50.096;20.082;2022-09-09T07:51:36;11.30;;;6.50;;
67640;SDS011;54434;50.096;20.082;2022-09-09T07:54:16;13.10;;;6.10;;
67640;SDS011;54434;50.096;20.082;2022-09-09T07:56:57;12.20;;;6.50;;
67640;SDS011;54434;50.096;20.082;2022-09-09T07:59:34;10.60;;;6.30;;
67640;SDS011;54434;50.096;20.082;2022-09-09T08:02:11;9.70;;;6.10;;
67640;SDS011;54434;50.096;20.082;2022-09-09T08:04:47;10.50;;;6.70;;
67640;SDS011;54434;50.096;20.082;2022-09-09T08:07:26;9.40;;;6.10;;
67640;SDS011;54434;50.096;20.082;2022-09-09T08:10:02;11.60;;;6.00;;
67640;SDS011;54434;50.096;20.082;2022-09-09T08:12:41;11.50;;;6.00;;
67640;SDS011;54434;50.096;20.082;2022-09-09T08:15:37;15.00;;;5.50;;
67640;SDS011;54434;50.096;20.082;2022-09-09T08:18:14;9.70;;;5.50;;
67640;SDS011;54434;50.096;20.082;2022-09-09T08:20:50;8.00;;;5.00;;
67640;SDS011;54434;50.096;20.082;2022-09-09T08:23:26;7.10;;;4.50;;
67640;SDS011;54434;50.096;20.082;2022-09-09T08:26:12;7.40;;;4.40;;
67640;SDS011;54434;50.096;20.082;2022-09-09T08:28:50;7.10;;;4.20;;
67640;SDS011;54434;50.096;20.082;2022-09-09T08:31:32;5.70;;;4.00;;
67640;SDS011;54434;50.096;20.082;2022-09-09T08:34:12;9.70;;;3.90;;
67640;SDS011;54434;50.096;20.082;2022-09-09T08:36:50;7.30;;;4.10;;
67640;SDS011;54434;50.096;20.082;2022-09-09T08:39:30;5.60;;;3.30;;
67640;SDS011;54434;50.096;20.082;2022-09-09T08:42:22;7.20;;;3.30;;
67640;SDS011;54434;50.096;20.082;2022-09-09T08:45:33;6.10;;;3.20;;
67640;SDS011;54434;50.096;20.082;2022-09-09T08:48:33;4.90;;;3.00;;
67640;SDS011;54434;50.096;20.082;2022-09-09T08:51:18;7.00;;;3.40;;
67640;SDS011;54434;50.096;20.082;2022-09-09T08:53:55;7.60;;;3.10;;
67640;SDS011;54434;50.096;20.082;2022-09-09T08:56:37;6.20;;;3.10;;
67640;SDS011;54434;50.096;20.082;2022-09-09T08:59:16;5.90;;;2.90;;
67640;SDS011;54434;50.096;20.082;2022-09-09T09:02:07;5.10;;;3.10;;
67640;SDS011;54434;50.096;20.082;2022-09-09T09:05:09;4.60;;;2.80;;
67640;SDS011;54434;50.096;20.082;2022-09-09T09:08:05;4.40;;;2.90;;
67640;SDS011;54434;50.096;20.082;2022-09-09T09:10:53;4.40;;;2.70;;
67640;SDS011;54434;50.096;20.082;2022-09-09T09:13:43;4.70;;;2.90;;
67640;SDS011;54434;50.096;20.082;2022-09-09T09:16:29;6.50;;;2.70;;
67640;SDS011;54434;50.096;20.082;2022-09-09T09:19:14;5.90;;;2.80;;
67640;SDS011;54434;50.096;20.082;2022-09-09T09:21:56;6.00;;;2.80;;
67640;SDS011;54434;50.096;20.082;2022-09-09T09:24:49;5.40;;;2.70;;
67640;SDS011;54434;50.096;20.082;2022-09-09T09:27:35;3.70;;;2.40;;
67640;SDS011;54434;50.096;20.082;2022-09-09T09:30:20;4.90;;;2.70;;
67640;SDS011;54434;50.096;20.082;2022-09-09T09:33:14;3.70;;;2.60;;
67640;SDS011;54434;50.096;20.082;2022-09-09T09:35:55;5.20;;;2.60;;
67640;SDS011;54434;50.096;20.082;2022-09-09T09:38:33;3.50;;;2.50;;
67640;SDS011;54434;50.096;20.082;2022-09-09T09:41:37;5.00;;;2.60;;
67640;SDS011;54434;50.096;20.082;2022-09-09T09:44:27;4.60;;;2.60;;
67640;SDS011;54434;50.096;20.082;2022-09-09T09:47:13;3.60;;;2.50;;
67640;SDS011;54434;50.096;20.082;2022-09-09T09:49:59;6.50;;;2.40;;
67640;SDS011;54434;50.096;20.082;2022-09-09T09:52:42;3.70;;;2.20;;
67640;SDS011;54434;50.096;20.082;2022-09-09T09:55:32;3.40;;;2.20;;
67640;SDS011;54434;50.096;20.082;2022-09-09T09:58:16;4.60;;;2.30;;
67640;SDS011;54434;50.096;20.082;2022-09-09T10:00:53;4.40;;;2.30;;
67640;SDS011;54434;50.096;20.082;2022-09-09T10:03:33;3.30;;;2.10;;
67640;SDS011;54434;50.096;20.082;2022-09-09T10:06:13;5.70;;;2.40;;
67640;SDS011;54434;50.096;20.082;2022-09-09T10:08:49;5.20;;;2.50;;
67640;SDS011;54434;50.096;20.082;2022-09-09T10:11:46;5.60;;;2.50;;
67640;SDS011;54434;50.096;20.082;2022-09-09T10:14:34;4.70;;;2.10;;
67640;SDS011;54434;50.096;20.082;2022-09-09T10:17:26;3.50;;;2.00;;
67640;SDS011;54434;50.096;20.082;2022-09-09T10:20:27;7.60;;;2.40;;
67640;SDS011;54434;50.096;20.082;2022-09-09T10:23:26;6.10;;;2.30;;
67640;SDS011;54434;50.096;20.082;2022-09-09T10:26:32;6.40;;;2.50;;
67640;SDS011;54434;50.096;20.082;2022-09-09T10:29:28;4.20;;;2.20;;
67640;SDS011;54434;50.096;20.082;2022-09-09T10:32:37;4.40;;;2.20;;
67640;SDS011;54434;50.096;20.082;2022-09-09T10:35:29;3.80;;;2.20;;
67640;SDS011;54434;50.096;20.082;2022-09-09T10:38:18;2.70;;;1.80;;
67640;SDS011;54434;50.096;20.082;2022-09-09T10:44:15;3.30;;;2.10;;
67640;SDS011;54434;50.096;20.082;2022-09-09T10:47:27;3.40;;;2.10;;
67640;SDS011;54434;50.096;20.082;2022-09-09T10:50:33;7.00;;;2.20;;
67640;SDS011;54434;50.096;20.082;2022-09-09T10:53:48;4.00;;;2.30;;
67640;SDS011;54434;50.096;20.082;2022-09-09T10:56:32;4.40;;;2.10;;
67640;SDS011;54434;50.096;20.082;2022-09-09T10:59:13;4.90;;;2.20;;
67640;SDS011;54434;50.096;20.082;2022-09-09T11:01:59;4.50;;;2.20;;
67640;SDS011;54434;50.096;20.082;2022-09-09T11:04:44;4.40;;;2.30;;
67640;SDS011;54434;50.096;20.082;2022-09-09T11:10:19;2.90;;;1.90;;
67640;SDS011;54434;50.096;20.082;2022-09-09T11:13:03;3.90;;;1.90;;
67640;SDS011;54434;50.096;20.082;2022-09-09T11:15:49;4.30;;;2.00;;
67640;SDS011;54434;50.096;20.082;2022-09-09T11:18:30;3.70;;;1.90;;
67640;SDS011;54434;50.096;20.082;2022-09-09T11:21:17;6.30;;;2.10;;
67640;SDS011;54434;50.096;20.082;2022-09-09T11:24:02;6.50;;;2.10;;
67640;SDS011;54434;50.096;20.082;2022-09-09T11:26:49;3.70;;;1.90;;
67640;SDS011;54434;50.096;20.082;2022-09-09T11:29:50;2.00;;;1.70;;
67640;SDS011;54434;50.096;20.082;2022-09-09T11:33:00;5.10;;;1.90;;
67640;SDS011;54434;50.096;20.082;2022-09-09T11:36:03;3.20;;;2.10;;
67640;SDS011;54434;50.096;20.082;2022-09-09T11:39:07;4.00;;;2.10;;
67640;SDS011;54434;50.096;20.082;2022-09-09T11:42:17;3.80;;;2.00;;
67640;SDS011;54434;50.096;20.082;2022-09-09T11:44:55;3.90;;;2.20;;
67640;SDS011;54434;50.096;20.082;2022-09-09T11:47:32;3.00;;;2.20;;
67640;SDS011;54434;50.096;20.082;2022-09-09T11:50:31;5.90;;;2.20;;
67640;SDS011;54434;50.096;20.082;2022-09-09T11:53:24;5.00;;;2.20;;
67640;SDS011;54434;50.096;20.082;2022-09-09T11:56:22;6.10;;;2.30;;
67640;SDS011;54434;50.096;20.082;2022-09-09T11:59:04;4.90;;;2.20;;
67640;SDS011;54434;50.096;20.082;2022-09-09T12:01:56;4.40;;;2.40;;
67640;SDS011;54434;50.096;20.082;2022-09-09T12:04:38;3.90;;;2.10;;
67640;SDS011;54434;50.096;20.082;2022-09-09T12:07:35;3.40;;;2.00;;
67640;SDS011;54434;50.096;20.082;2022-09-09T12:10:27;3.20;;;1.90;;
67640;SDS011;54434;50.096;20.082;2022-09-09T12:13:20;2.50;;;1.80;;
67640;SDS011;54434;50.096;20.082;2022-09-09T12:15:59;4.00;;;2.00;;
67640;SDS011;54434;50.096;20.082;2022-09-09T12:18:42;2.60;;;1.90;;
67640;SDS011;54434;50.096;20.082;2022-09-09T12:21:31;3.10;;;1.70;;
67640;SDS011;54434;50.096;20.082;2022-09-09T12:24:19;4.20;;;2.10;;
67640;SDS011;54434;50.096;20.082;2022-09-09T12:27:11;4.20;;;2.00;;
67640;SDS011;54434;50.096;20.082;2022-09-09T12:29:58;3.30;;;1.70;;
67640;SDS011;54434;50.096;20.082;2022-09-09T12:32:38;3.10;;;2.00;;
67640;SDS011;54434;50.096;20.082;2022-09-09T12:35:20;4.30;;;1.90;;
67640;SDS011;54434;50.096;20.082;2022-09-09T12:38:02;4.20;;;2.00;;
67640;SDS011;54434;50.096;20.082;2022-09-09T12:40:55;5.60;;;2.30;;
67640;SDS011;54434;50.096;20.082;2022-09-09T12:43:32;3.50;;;2.00;;
67640;SDS011;54434;50.096;20.082;2022-09-09T12:46:20;4.60;;;2.20;;
67640;SDS011;54434;50.096;20.082;2022-09-09T12:49:03;4.20;;;2.00;;
67640;SDS011;54434;50.096;20.082;2022-09-09T12:51:53;4.40;;;2.10;;
67640;SDS011;54434;50.096;20.082;2022-09-09T12:54:31;4.90;;;2.00;;
67640;SDS011;54434;50.096;20.082;2022-09-09T12:57:13;3.90;;;2.20;;
67640;SDS011;54434;50.096;20.082;2022-09-09T12:59:50;4.20;;;2.00;;
67640;SDS011;54434;50.096;20.082;2022-09-09T13:02:28;4.70;;;2.30;;
67640;SDS011;54434;50.096;20.082;2022-09-09T13:05:18;6.10;;;2.40;;
67640;SDS011;54434;50.096;20.082;2022-09-09T13:08:05;5.10;;;2.10;;
67640;SDS011;54434;50.096;20.082;2022-09-09T13:10:48;3.70;;;2.10;;
67640;SDS011;54434;50.096;20.082;2022-09-09T13:13:37;3.10;;;2.00;;
67640;SDS011;54434;50.096;20.082;2022-09-09T13:16:25;5.40;;;2.50;;
67640;SDS011;54434;50.096;20.082;2022-09-09T13:19:13;2.70;;;2.00;;
67640;SDS011;54434;50.096;20.082;2022-09-09T13:21:50;3.70;;;2.10;;
67640;SDS011;54434;50.096;20.082;2022-09-09T13:24:32;5.20;;;2.00;;
67640;SDS011;54434;50.096;20.082;2022-09-09T13:27:28;3.80;;;2.30;;
67640;SDS011;54434;50.096;20.082;2022-09-09T13:30:24;4.80;;;2.00;;
67640;SDS011;54434;50.096;20.082;2022-09-09T13:33:18;3.30;;;2.10;;
67640;SDS011;54434;50.096;20.082;2022-09-09T13:35:59;5.20;;;1.90;;
67640;SDS011;54434;50.096;20.082;2022-09-09T13:38:40;3.30;;;1.90;;
67640;SDS011;54434;50.096;20.082;2022-09-09T13:44:19;6.30;;;2.20;;
67640;SDS011;54434;50.096;20.082;2022-09-09T13:47:15;5.60;;;2.10;;
67640;SDS011;54434;50.096;20.082;2022-09-09T13:49:53;3.40;;;2.00;;
67640;SDS011;54434;50.096;20.082;2022-09-09T13:52:31;4.60;;;2.20;;
67640;SDS011;54434;50.096;20.082;2022-09-09T13:55:09;3.50;;;2.10;;
67640;SDS011;54434;50.096;20.082;2022-09-09T13:57:55;3.90;;;2.10;;
67640;SDS011;54434;50.096;20.082;2022-09-09T14:00:35;3.50;;;2.20;;
67640;SDS011;54434;50.096;20.082;2022-09-09T14:03:10;5.50;;;2.30;;
67640;SDS011;54434;50.096;20.082;2022-09-09T14:05:47;5.10;;;2.40;;
67640;SDS011;54434;50.096;20.082;2022-09-09T14:08:28;5.80;;;2.60;;
67640;SDS011;54434;50.096;20.082;2022-09-09T14:11:12;5.80;;;2.50;;
67640;SDS011;54434;50.096;20.082;2022-09-09T14:13:48;5.50;;;2.40;;
67640;SDS011;54434;50.096;20.082;2022-09-09T14:16:24;5.10;;;2.10;;
67640;SDS011;54434;50.096;20.082;2022-09-09T14:19:01;5.30;;;2.40;;
67640;SDS011;54434;50.096;20.082;2022-09-09T14:21:37;6.00;;;2.40;;
67640;SDS011;54434;50.096;20.082;2022-09-09T14:24:13;5.80;;;2.50;;
67640;SDS011;54434;50.096;20.082;2022-09-09T14:26:50;5.70;;;2.60;;
67640;SDS011;54434;50.096;20.082;2022-09-09T14:29:26;8.50;;;2.90;;
67640;SDS011;54434;50.096;20.082;2022-09-09T14:32:03;6.80;;;2.50;;
67640;SDS011;54434;50.096;20.082;2022-09-09T14:34:44;5.50;;;2.40;;
67640;SDS011;54434;50.096;20.082;2022-09-09T14:37:22;5.00;;;2.60;;
67640;SDS011;54434;50.096;20.082;2022-09-09T14:39:59;8.40;;;3.20;;
67640;SDS011;54434;50.096;20.082;2022-09-09T14:42:35;4.30;;;2.40;;
67640;SDS011;54434;50.096;20.082;2022-09-09T14:45:14;4.60;;;2.10;;
67640;SDS011;54434;50.096;20.082;2022-09-09T14:47:50;4.70;;;2.30;;
67640;SDS011;54434;50.096;20.082;2022-09-09T14:50:27;6.50;;;2.40;;
67640;SDS011;54434;50.096;20.082;2022-09-09T14:53:03;6.20;;;2.30;;
67640;SDS011;54434;50.096;20.082;2022-09-09T14:55:39;6.70;;;2.80;;
67640;SDS011;54434;50.096;20.082;2022-09-09T14:58:16;5.90;;;2.70;;
67640;SDS011;54434;50.096;20.082;2022-09-09T15:00:53;7.60;;;2.70;;
67640;SDS011;54434;50.096;20.082;2022-09-09T15:03:29;5.30;;;2.50;;
67640;SDS011;54434;50.096;20.082;2022-09-09T15:06:11;6.00;;;2.70;;
67640;SDS011;54434;50.096;20.082;2022-09-09T15:08:49;5.10;;;2.50;;
67640;SDS011;54434;50.096;20.082;2022-09-09T15:11:27;4.70;;;2.70;;
67640;SDS011;54434;50.096;20.082;2022-09-09T15:14:05;5.10;;;2.50;;
67640;SDS011;54434;50.096;20.082;2022-09-09T15:16:42;7.90;;;2.80;;
67640;SDS011;54434;50.096;20.082;2022-09-09T15:19:18;5.90;;;2.70;;
67640;SDS011;54434;50.096;20.082;2022-09-09T15:21:54;6.00;;;2.50;;
67640;SDS011;54434;50.096;20.082;2022-09-09T15:24:30;4.50;;;2.40;;
67640;SDS011;54434;50.096;20.082;2022-09-09T15:27:06;6.40;;;2.60;;
67640;SDS011;54434;50.096;20.082;2022-09-09T15:29:42;5.80;;;2.60;;
67640;SDS011;54434;50.096;20.082;2022-09-09T15:32:18;5.60;;;2.70;;
67640;SDS011;54434;50.096;20.082;2022-09-09T15:34:54;5.80;;;2.70;;
67640;SDS011;54434;50.096;20.082;2022-09-09T15:37:30;5.40;;;2.70;;
67640;SDS011;54434;50.096;20.082;2022-09-09T15:40:09;8.10;;;2.90;;
67640;SDS011;54434;50.096;20.082;2022-09-09T15:42:46;7.00;;;3.00;;
67640;SDS011;54434;50.096;20.082;2022-09-09T15:45:22;4.70;;;3.00;;
67640;SDS011;54434;50.096;20.082;2022-09-09T15:47:58;7.60;;;3.60;;
67640;SDS011;54434;50.096;20.082;2022-09-09T15:50:34;7.50;;;3.90;;
67640;SDS011;54434;50.096;20.082;2022-09-09T15:53:10;6.00;;;3.00;;
67640;SDS011;54434;50.096;20.082;2022-09-09T15:55:46;8.30;;;2.90;;
67640;SDS011;54434;50.096;20.082;2022-09-09T15:58:30;8.30;;;2.90;;
67640;SDS011;54434;50.096;20.082;2022-09-09T16:01:08;6.90;;;3.00;;
67640;SDS011;54434;50.096;20.082;2022-09-09T16:03:46;5.70;;;3.20;;
67640;SDS011;54434;50.096;20.082;2022-09-09T16:06:26;7.00;;;2.90;;
67640;SDS011;54434;50.096;20.082;2022-09-09T16:09:05;5.70;;;2.70;;